sensor_id;sensor_type;location;lat;lon;timestamp;P1;durP1;ratioP1;P2;durP2;ratioP2
78416;SDS011;67715;46.170;6.140;2023-05-16T00:02:18;4.67;;;4.00;;
78416;SDS011;67715;46.170;6.140;2023-05-16T00:04:43;7.90;;;4.55;;
78416;SDS011;67715;46.170;6.140;2023-05-16T00:07:10;5.93;;;4.00;;
78416;SDS011;67715;46.170;6.140;2023-05-16T00:09:35;4.80;;;4.30;;
78416;SDS011;67715;46.170;6.140;2023-05-16T00:12:00;4.93;;;3.93;;
78416;SDS011;67715;46.170;6.140;2023-05-16T00:14:26;6.20;;;4.40;;
78416;SDS011;67715;46.170;6.140;2023-05-16T00:16:52;5.65;;;4.25;;
78416;SDS011;67715;46.170;6.140;2023-05-16T00:19:18;5.22;;;3.70;;
78416;SDS011;67715;46.170;6.140;2023-05-16T00:21:44;6.75;;;4.57;;
78416;SDS011;67715;46.170;6.140;2023-05-16T00:24:09;4.68;;;3.60;;
78416;SDS011;67715;46.170;6.140;2023-05-16T00:26:35;6.33;;;4.33;;
78416;SDS011;67715;46.170;6.140;2023-05-16T00:29:00;6.37;;;4.77;;
78416;SDS011;67715;46.170;6.140;2023-05-16T00:31:26;5.55;;;4.30;;
78416;SDS011;67715;46.170;6.140;2023-05-16T00:33:51;5.20;;;4.20;;
78416;SDS011;67715;46.170;6.140;2023-05-16T00:36:17;5.43;;;3.83;;
78416;SDS011;67715;46.170;6.140;2023-05-16T00:38:42;6.07;;;4.00;;
78416;SDS011;67715;46.170;6.140;2023-05-16T00:41:07;6.17;;;4.17;;
78416;SDS011;67715;46.170;6.140;2023-05-16T00:43:33;7.13;;;4.30;;
78416;SDS011;67715;46.170;6.140;2023-05-16T00:45:58;5.13;;;4.10;;
78416;SDS011;67715;46.170;6.140;2023-05-16T00:48:24;7.20;;;5.32;;
78416;SDS011;67715;46.170;6.140;2023-05-16T00:50:50;5.80;;;4.78;;
78416;SDS011;67715;46.170;6.140;2023-05-16T00:53:17;5.43;;;4.45;;
78416;SDS011;67715;46.170;6.140;2023-05-16T00:55:42;5.15;;;4.15;;
78416;SDS011;67715;46.170;6.140;2023-05-16T00:58:08;6.33;;;4.37;;
78416;SDS011;67715;46.170;6.140;2023-05-16T01:00:33;6.20;;;4.65;;
78416;SDS011;67715;46.170;6.140;2023-05-16T01:02:59;5.25;;;4.05;;
78416;SDS011;67715;46.170;6.140;2023-05-16T01:05:25;6.50;;;4.78;;
78416;SDS011;67715;46.170;6.140;2023-05-16T01:07:50;6.40;;;4.77;;
78416;SDS011;67715;46.170;6.140;2023-05-16T01:10:15;6.67;;;4.57;;
78416;SDS011;67715;46.170;6.140;2023-05-16T01:12:49;5.47;;;4.85;;
78416;SDS011;67715;46.170;6.140;2023-05-16T01:15:27;5.07;;;4.28;;
78416;SDS011;67715;46.170;6.140;2023-05-16T01:20:44;4.95;;;4.35;;
78416;SDS011;67715;46.170;6.140;2023-05-16T01:28:44;6.03;;;4.10;;
78416;SDS011;67715;46.170;6.140;2023-05-16T01:31:10;4.45;;;3.67;;
78416;SDS011;67715;46.170;6.140;2023-05-16T01:33:36;8.32;;;5.15;;
78416;SDS011;67715;46.170;6.140;2023-05-16T01:38:32;4.78;;;3.72;;
78416;SDS011;67715;46.170;6.140;2023-05-16T01:41:03;4.82;;;4.03;;
78416;SDS011;67715;46.170;6.140;2023-05-16T01:43:42;4.90;;;3.70;;
78416;SDS011;67715;46.170;6.140;2023-05-16T01:46:10;5.03;;;3.10;;
78416;SDS011;67715;46.170;6.140;2023-05-16T01:49:24;5.25;;;3.63;;
78416;SDS011;67715;46.170;6.140;2023-05-16T01:51:41;5.03;;;4.10;;
78416;SDS011;67715;46.170;6.140;2023-05-16T01:54:08;8.90;;;4.40;;
78416;SDS011;67715;46.170;6.140;2023-05-16T01:56:36;6.32;;;4.68;;
78416;SDS011;67715;46.170;6.140;2023-05-16T01:59:01;6.07;;;4.63;;
78416;SDS011;67715;46.170;6.140;2023-05-16T02:01:28;7.15;;;4.60;;
78416;SDS011;67715;46.170;6.140;2023-05-16T02:03:54;7.13;;;5.55;;
78416;SDS011;67715;46.170;6.140;2023-05-16T02:06:19;6.17;;;4.73;;
78416;SDS011;67715;46.170;6.140;2023-05-16T02:08:44;7.60;;;5.40;;
78416;SDS011;67715;46.170;6.140;2023-05-16T02:11:09;6.23;;;4.57;;
78416;SDS011;67715;46.170;6.140;2023-05-16T02:13:35;7.47;;;5.00;;
78416;SDS011;67715;46.170;6.140;2023-05-16T02:16:00;9.93;;;5.60;;
78416;SDS011;67715;46.170;6.140;2023-05-16T02:18:26;6.07;;;4.30;;
78416;SDS011;67715;46.170;6.140;2023-05-16T02:20:52;6.70;;;4.78;;
78416;SDS011;67715;46.170;6.140;2023-05-16T02:23:17;5.88;;;4.63;;
78416;SDS011;67715;46.170;6.140;2023-05-16T02:25:43;5.83;;;4.73;;
78416;SDS011;67715;46.170;6.140;2023-05-16T02:28:08;8.17;;;5.43;;
78416;SDS011;67715;46.170;6.140;2023-05-16T02:30:33;8.80;;;5.60;;
78416;SDS011;67715;46.170;6.140;2023-05-16T02:32:59;8.88;;;5.43;;
78416;SDS011;67715;46.170;6.140;2023-05-16T02:35:24;6.60;;;5.22;;
78416;SDS011;67715;46.170;6.140;2023-05-16T02:37:50;7.93;;;5.67;;
78416;SDS011;67715;46.170;6.140;2023-05-16T02:40:15;6.37;;;4.63;;
78416;SDS011;67715;46.170;6.140;2023-05-16T02:42:40;5.30;;;4.30;;
78416;SDS011;67715;46.170;6.140;2023-05-16T02:45:06;6.07;;;4.90;;
78416;SDS011;67715;46.170;6.140;2023-05-16T02:47:31;6.75;;;5.53;;
78416;SDS011;67715;46.170;6.140;2023-05-16T02:49:57;5.90;;;4.70;;
78416;SDS011;67715;46.170;6.140;2023-05-16T02:52:22;6.67;;;4.67;;
78416;SDS011;67715;46.170;6.140;2023-05-16T02:54:47;6.95;;;5.28;;
78416;SDS011;67715;46.170;6.140;2023-05-16T02:57:13;6.25;;;4.60;;
78416;SDS011;67715;46.170;6.140;2023-05-16T02:59:38;6.63;;;5.00;;
78416;SDS011;67715;46.170;6.140;2023-05-16T03:02:04;7.07;;;5.30;;
78416;SDS011;67715;46.170;6.140;2023-05-16T03:04:29;6.47;;;5.47;;
78416;SDS011;67715;46.170;6.140;2023-05-16T03:06:55;11.87;;;5.90;;
78416;SDS011;67715;46.170;6.140;2023-05-16T03:09:20;6.82;;;4.80;;
78416;SDS011;67715;46.170;6.140;2023-05-16T03:11:45;7.22;;;5.00;;
78416;SDS011;67715;46.170;6.140;2023-05-16T03:14:11;9.93;;;5.43;;
78416;SDS011;67715;46.170;6.140;2023-05-16T03:16:37;7.38;;;5.45;;
78416;SDS011;67715;46.170;6.140;2023-05-16T03:19:03;7.72;;;4.43;;
78416;SDS011;67715;46.170;6.140;2023-05-16T03:21:28;7.38;;;5.07;;
78416;SDS011;67715;46.170;6.140;2023-05-16T03:23:54;8.00;;;6.03;;
78416;SDS011;67715;46.170;6.140;2023-05-16T03:26:19;6.60;;;4.60;;
78416;SDS011;67715;46.170;6.140;2023-05-16T03:28:45;6.43;;;4.55;;
78416;SDS011;67715;46.170;6.140;2023-05-16T03:31:10;6.22;;;4.63;;
78416;SDS011;67715;46.170;6.140;2023-05-16T03:33:36;8.67;;;5.40;;
78416;SDS011;67715;46.170;6.140;2023-05-16T03:36:01;6.40;;;4.93;;
78416;SDS011;67715;46.170;6.140;2023-05-16T03:38:26;6.95;;;4.68;;
78416;SDS011;67715;46.170;6.140;2023-05-16T03:40:52;8.43;;;5.37;;
78416;SDS011;67715;46.170;6.140;2023-05-16T03:43:17;7.67;;;5.67;;
78416;SDS011;67715;46.170;6.140;2023-05-16T03:45:42;6.87;;;5.27;;
78416;SDS011;67715;46.170;6.140;2023-05-16T03:48:08;8.65;;;5.60;;
78416;SDS011;67715;46.170;6.140;2023-05-16T03:50:34;6.65;;;4.97;;
78416;SDS011;67715;46.170;6.140;2023-05-16T03:53:01;5.28;;;4.10;;
78416;SDS011;67715;46.170;6.140;2023-05-16T03:55:27;7.18;;;5.43;;
78416;SDS011;67715;46.170;6.140;2023-05-16T03:57:53;7.13;;;5.37;;
78416;SDS011;67715;46.170;6.140;2023-05-16T04:00:18;9.32;;;6.78;;
78416;SDS011;67715;46.170;6.140;2023-05-16T04:02:43;9.35;;;5.65;;
78416;SDS011;67715;46.170;6.140;2023-05-16T04:05:09;6.50;;;5.20;;
78416;SDS011;67715;46.170;6.140;2023-05-16T04:07:35;6.95;;;5.18;;
78416;SDS011;67715;46.170;6.140;2023-05-16T04:10:01;7.57;;;5.13;;
78416;SDS011;67715;46.170;6.140;2023-05-16T04:12:27;7.60;;;4.65;;
78416;SDS011;67715;46.170;6.140;2023-05-16T04:14:52;8.03;;;5.73;;
78416;SDS011;67715;46.170;6.140;2023-05-16T04:17:17;7.40;;;5.57;;
78416;SDS011;67715;46.170;6.140;2023-05-16T04:19:43;7.80;;;5.23;;
78416;SDS011;67715;46.170;6.140;2023-05-16T04:22:08;6.03;;;4.95;;
78416;SDS011;67715;46.170;6.140;2023-05-16T04:24:33;6.93;;;5.27;;
78416;SDS011;67715;46.170;6.140;2023-05-16T04:26:59;10.03;;;5.43;;
78416;SDS011;67715;46.170;6.140;2023-05-16T04:29:24;7.28;;;5.95;;
78416;SDS011;67715;46.170;6.140;2023-05-16T04:31:50;7.18;;;5.47;;
78416;SDS011;67715;46.170;6.140;2023-05-16T04:34:15;5.90;;;4.67;;
78416;SDS011;67715;46.170;6.140;2023-05-16T04:36:41;8.88;;;5.57;;
78416;SDS011;67715;46.170;6.140;2023-05-16T04:39:07;8.13;;;5.33;;
78416;SDS011;67715;46.170;6.140;2023-05-16T04:41:32;6.28;;;4.80;;
78416;SDS011;67715;46.170;6.140;2023-05-16T04:44:00;8.13;;;5.57;;
78416;SDS011;67715;46.170;6.140;2023-05-16T04:46:28;7.22;;;5.32;;
78416;SDS011;67715;46.170;6.140;2023-05-16T04:48:53;6.90;;;5.13;;
78416;SDS011;67715;46.170;6.140;2023-05-16T04:51:18;7.00;;;5.37;;
78416;SDS011;67715;46.170;6.140;2023-05-16T04:53:43;6.93;;;5.17;;
78416;SDS011;67715;46.170;6.140;2023-05-16T04:56:09;7.43;;;5.40;;
78416;SDS011;67715;46.170;6.140;2023-05-16T04:58:35;6.68;;;5.10;;
78416;SDS011;67715;46.170;6.140;2023-05-16T05:01:00;6.33;;;5.20;;
78416;SDS011;67715;46.170;6.140;2023-05-16T05:03:25;7.33;;;5.57;;
78416;SDS011;67715;46.170;6.140;2023-05-16T05:05:51;7.10;;;5.03;;
78416;SDS011;67715;46.170;6.140;2023-05-16T05:08:17;7.17;;;4.67;;
78416;SDS011;67715;46.170;6.140;2023-05-16T05:10:42;6.65;;;5.55;;
78416;SDS011;67715;46.170;6.140;2023-05-16T05:13:08;5.37;;;4.33;;
78416;SDS011;67715;46.170;6.140;2023-05-16T05:15:34;6.88;;;5.15;;
78416;SDS011;67715;46.170;6.140;2023-05-16T05:18:00;7.38;;;5.88;;
78416;SDS011;67715;46.170;6.140;2023-05-16T05:20:25;6.70;;;5.10;;
78416;SDS011;67715;46.170;6.140;2023-05-16T05:22:50;5.97;;;4.88;;
78416;SDS011;67715;46.170;6.140;2023-05-16T05:25:16;6.27;;;5.00;;
78416;SDS011;67715;46.170;6.140;2023-05-16T05:27:41;8.10;;;5.37;;
78416;SDS011;67715;46.170;6.140;2023-05-16T05:30:06;6.07;;;5.10;;
78416;SDS011;67715;46.170;6.140;2023-05-16T05:32:32;5.80;;;4.57;;
78416;SDS011;67715;46.170;6.140;2023-05-16T05:34:57;5.90;;;4.47;;
78416;SDS011;67715;46.170;6.140;2023-05-16T05:37:23;6.90;;;5.30;;
78416;SDS011;67715;46.170;6.140;2023-05-16T05:39:49;6.05;;;4.45;;
78416;SDS011;67715;46.170;6.140;2023-05-16T05:42:14;7.63;;;5.50;;
78416;SDS011;67715;46.170;6.140;2023-05-16T05:44:40;6.77;;;4.70;;
78416;SDS011;67715;46.170;6.140;2023-05-16T05:47:05;6.20;;;4.43;;
78416;SDS011;67715;46.170;6.140;2023-05-16T05:49:31;8.18;;;4.72;;
78416;SDS011;67715;46.170;6.140;2023-05-16T05:51:56;5.63;;;4.53;;
78416;SDS011;67715;46.170;6.140;2023-05-16T05:54:21;7.68;;;5.00;;
78416;SDS011;67715;46.170;6.140;2023-05-16T05:56:47;6.65;;;5.20;;
78416;SDS011;67715;46.170;6.140;2023-05-16T05:59:12;6.33;;;4.63;;
78416;SDS011;67715;46.170;6.140;2023-05-16T06:01:38;7.87;;;4.60;;
78416;SDS011;67715;46.170;6.140;2023-05-16T06:04:03;7.18;;;4.78;;
78416;SDS011;67715;46.170;6.140;2023-05-16T06:06:29;7.60;;;5.30;;
78416;SDS011;67715;46.170;6.140;2023-05-16T06:08:55;6.45;;;4.85;;
78416;SDS011;67715;46.170;6.140;2023-05-16T06:11:21;6.95;;;4.57;;
78416;SDS011;67715;46.170;6.140;2023-05-16T06:13:46;8.00;;;4.23;;
78416;SDS011;67715;46.170;6.140;2023-05-16T06:16:12;6.80;;;4.30;;
78416;SDS011;67715;46.170;6.140;2023-05-16T06:18:37;4.93;;;4.38;;
78416;SDS011;67715;46.170;6.140;2023-05-16T06:21:02;5.40;;;4.07;;
78416;SDS011;67715;46.170;6.140;2023-05-16T06:23:28;5.75;;;4.40;;
78416;SDS011;67715;46.170;6.140;2023-05-16T06:25:53;7.53;;;4.80;;
78416;SDS011;67715;46.170;6.140;2023-05-16T06:28:19;6.10;;;4.20;;
78416;SDS011;67715;46.170;6.140;2023-05-16T06:30:44;8.05;;;4.47;;
78416;SDS011;67715;46.170;6.140;2023-05-16T06:33:11;8.13;;;5.15;;
78416;SDS011;67715;46.170;6.140;2023-05-16T06:35:38;7.53;;;4.68;;
78416;SDS011;67715;46.170;6.140;2023-05-16T06:38:03;6.10;;;4.85;;
78416;SDS011;67715;46.170;6.140;2023-05-16T06:40:28;6.47;;;5.37;;
78416;SDS011;67715;46.170;6.140;2023-05-16T06:42:54;6.20;;;5.13;;
78416;SDS011;67715;46.170;6.140;2023-05-16T06:45:19;5.90;;;4.65;;
78416;SDS011;67715;46.170;6.140;2023-05-16T06:47:44;7.63;;;5.25;;
78416;SDS011;67715;46.170;6.140;2023-05-16T06:50:10;8.55;;;4.78;;
78416;SDS011;67715;46.170;6.140;2023-05-16T06:52:35;9.00;;;5.30;;
78416;SDS011;67715;46.170;6.140;2023-05-16T06:55:01;7.00;;;5.60;;
78416;SDS011;67715;46.170;6.140;2023-05-16T06:57:26;5.47;;;4.37;;
78416;SDS011;67715;46.170;6.140;2023-05-16T06:59:53;6.93;;;5.15;;
78416;SDS011;67715;46.170;6.140;2023-05-16T07:02:18;8.30;;;5.13;;
78416;SDS011;67715;46.170;6.140;2023-05-16T07:04:43;7.10;;;4.53;;
78416;SDS011;67715;46.170;6.140;2023-05-16T07:07:09;7.43;;;4.88;;
78416;SDS011;67715;46.170;6.140;2023-05-16T07:09:34;8.45;;;4.30;;
78416;SDS011;67715;46.170;6.140;2023-05-16T07:12:00;6.23;;;4.57;;
78416;SDS011;67715;46.170;6.140;2023-05-16T07:14:25;6.43;;;4.18;;
78416;SDS011;67715;46.170;6.140;2023-05-16T07:16:51;5.67;;;4.47;;
78416;SDS011;67715;46.170;6.140;2023-05-16T07:19:16;6.97;;;4.37;;
78416;SDS011;67715;46.170;6.140;2023-05-16T07:21:41;8.48;;;4.45;;
78416;SDS011;67715;46.170;6.140;2023-05-16T07:24:07;7.67;;;4.73;;
78416;SDS011;67715;46.170;6.140;2023-05-16T07:26:32;6.33;;;4.47;;
78416;SDS011;67715;46.170;6.140;2023-05-16T07:28:57;5.13;;;3.83;;
78416;SDS011;67715;46.170;6.140;2023-05-16T07:31:23;5.30;;;4.37;;
78416;SDS011;67715;46.170;6.140;2023-05-16T07:33:48;5.43;;;4.32;;
78416;SDS011;67715;46.170;6.140;2023-05-16T07:36:13;7.00;;;4.35;;
78416;SDS011;67715;46.170;6.140;2023-05-16T07:38:39;7.67;;;4.13;;
78416;SDS011;67715;46.170;6.140;2023-05-16T07:41:04;5.22;;;3.53;;
78416;SDS011;67715;46.170;6.140;2023-05-16T07:43:30;5.25;;;4.18;;
78416;SDS011;67715;46.170;6.140;2023-05-16T07:45:56;7.07;;;5.00;;
78416;SDS011;67715;46.170;6.140;2023-05-16T07:48:21;5.95;;;4.50;;
78416;SDS011;67715;46.170;6.140;2023-05-16T07:50:47;9.07;;;5.27;;
78416;SDS011;67715;46.170;6.140;2023-05-16T07:53:12;7.13;;;5.30;;
78416;SDS011;67715;46.170;6.140;2023-05-16T07:55:37;7.50;;;5.22;;
78416;SDS011;67715;46.170;6.140;2023-05-16T07:58:03;8.40;;;5.70;;
78416;SDS011;67715;46.170;6.140;2023-05-16T08:00:28;5.97;;;4.80;;
78416;SDS011;67715;46.170;6.140;2023-05-16T08:02:53;6.97;;;5.10;;
78416;SDS011;67715;46.170;6.140;2023-05-16T08:05:19;7.35;;;4.65;;
78416;SDS011;67715;46.170;6.140;2023-05-16T08:07:44;7.03;;;4.75;;
78416;SDS011;67715;46.170;6.140;2023-05-16T08:10:10;5.43;;;3.80;;
78416;SDS011;67715;46.170;6.140;2023-05-16T08:12:35;6.00;;;4.27;;
78416;SDS011;67715;46.170;6.140;2023-05-16T08:15:00;10.10;;;4.32;;
78416;SDS011;67715;46.170;6.140;2023-05-16T08:17:26;4.60;;;4.00;;
78416;SDS011;67715;46.170;6.140;2023-05-16T08:19:52;5.40;;;4.30;;
78416;SDS011;67715;46.170;6.140;2023-05-16T08:22:17;5.63;;;3.90;;
78416;SDS011;67715;46.170;6.140;2023-05-16T08:24:43;5.28;;;3.40;;
78416;SDS011;67715;46.170;6.140;2023-05-16T08:27:08;4.63;;;3.87;;
78416;SDS011;67715;46.170;6.140;2023-05-16T08:29:33;5.97;;;3.83;;
78416;SDS011;67715;46.170;6.140;2023-05-16T08:31:59;4.67;;;3.63;;
78416;SDS011;67715;46.170;6.140;2023-05-16T08:34:24;11.37;;;5.27;;
78416;SDS011;67715;46.170;6.140;2023-05-16T08:36:49;4.63;;;3.92;;
78416;SDS011;67715;46.170;6.140;2023-05-16T08:39:15;4.85;;;3.55;;
78416;SDS011;67715;46.170;6.140;2023-05-16T08:41:40;4.68;;;3.72;;
78416;SDS011;67715;46.170;6.140;2023-05-16T08:44:05;4.23;;;3.33;;
78416;SDS011;67715;46.170;6.140;2023-05-16T08:46:31;5.50;;;4.03;;
78416;SDS011;67715;46.170;6.140;2023-05-16T08:48:58;6.68;;;4.22;;
78416;SDS011;67715;46.170;6.140;2023-05-16T08:51:24;6.47;;;4.65;;
78416;SDS011;67715;46.170;6.140;2023-05-16T08:54:11;5.20;;;3.75;;
78416;SDS011;67715;46.170;6.140;2023-05-16T08:56:37;5.53;;;4.00;;
78416;SDS011;67715;46.170;6.140;2023-05-16T08:59:03;4.63;;;3.80;;
78416;SDS011;67715;46.170;6.140;2023-05-16T09:01:29;4.63;;;3.75;;
78416;SDS011;67715;46.170;6.140;2023-05-16T09:03:55;3.75;;;2.88;;
78416;SDS011;67715;46.170;6.140;2023-05-16T09:06:20;6.10;;;3.80;;
78416;SDS011;67715;46.170;6.140;2023-05-16T09:08:45;3.87;;;3.43;;
78416;SDS011;67715;46.170;6.140;2023-05-16T09:11:11;5.13;;;3.43;;
78416;SDS011;67715;46.170;6.140;2023-05-16T09:13:37;4.53;;;2.50;;
78416;SDS011;67715;46.170;6.140;2023-05-16T09:16:13;3.00;;;2.70;;
78416;SDS011;67715;46.170;6.140;2023-05-16T09:18:44;4.13;;;2.50;;
78416;SDS011;67715;46.170;6.140;2023-05-16T09:21:10;2.83;;;1.20;;
78416;SDS011;67715;46.170;6.140;2023-05-16T09:23:36;2.30;;;1.20;;
78416;SDS011;67715;46.170;6.140;2023-05-16T09:26:02;2.55;;;1.00;;
78416;SDS011;67715;46.170;6.140;2023-05-16T09:28:29;2.95;;;1.15;;
78416;SDS011;67715;46.170;6.140;2023-05-16T09:30:55;2.55;;;0.93;;
78416;SDS011;67715;46.170;6.140;2023-05-16T09:33:23;1.73;;;1.20;;
78416;SDS011;67715;46.170;6.140;2023-05-16T09:35:59;2.70;;;1.50;;
78416;SDS011;67715;46.170;6.140;2023-05-16T09:38:25;3.08;;;1.70;;
78416;SDS011;67715;46.170;6.140;2023-05-16T09:40:51;2.58;;;1.45;;
78416;SDS011;67715;46.170;6.140;2023-05-16T09:43:19;2.38;;;1.05;;
78416;SDS011;67715;46.170;6.140;2023-05-16T09:45:47;1.98;;;1.40;;
78416;SDS011;67715;46.170;6.140;2023-05-16T09:48:13;1.63;;;1.13;;
78416;SDS011;67715;46.170;6.140;2023-05-16T09:50:39;1.02;;;0.80;;
78416;SDS011;67715;46.170;6.140;2023-05-16T09:53:06;1.38;;;0.90;;
78416;SDS011;67715;46.170;6.140;2023-05-16T09:55:32;1.47;;;1.10;;
78416;SDS011;67715;46.170;6.140;2023-05-16T09:57:57;1.83;;;0.88;;
78416;SDS011;67715;46.170;6.140;2023-05-16T10:00:27;1.70;;;1.30;;
78416;SDS011;67715;46.170;6.140;2023-05-16T10:02:57;3.40;;;1.35;;
78416;SDS011;67715;46.170;6.140;2023-05-16T10:05:24;2.78;;;1.75;;
78416;SDS011;67715;46.170;6.140;2023-05-16T10:07:50;2.05;;;1.52;;
78416;SDS011;67715;46.170;6.140;2023-05-16T10:10:17;3.00;;;1.60;;
78416;SDS011;67715;46.170;6.140;2023-05-16T10:12:42;1.67;;;1.30;;
78416;SDS011;67715;46.170;6.140;2023-05-16T10:15:08;1.95;;;1.30;;
78416;SDS011;67715;46.170;6.140;2023-05-16T10:17:34;2.30;;;1.40;;
78416;SDS011;67715;46.170;6.140;2023-05-16T10:20:02;1.92;;;1.45;;
78416;SDS011;67715;46.170;6.140;2023-05-16T10:22:32;2.38;;;1.77;;
78416;SDS011;67715;46.170;6.140;2023-05-16T10:27:46;1.90;;;1.60;;
78416;SDS011;67715;46.170;6.140;2023-05-16T10:30:11;3.80;;;1.55;;
78416;SDS011;67715;46.170;6.140;2023-05-16T10:32:37;2.35;;;1.60;;
78416;SDS011;67715;46.170;6.140;2023-05-16T10:35:03;3.25;;;2.03;;
78416;SDS011;67715;46.170;6.140;2023-05-16T10:37:30;4.43;;;2.72;;
78416;SDS011;67715;46.170;6.140;2023-05-16T10:39:56;3.58;;;2.60;;
78416;SDS011;67715;46.170;6.140;2023-05-16T10:42:23;5.53;;;3.10;;
78416;SDS011;67715;46.170;6.140;2023-05-16T10:44:48;4.90;;;3.20;;
78416;SDS011;67715;46.170;6.140;2023-05-16T10:47:17;6.60;;;3.17;;
78416;SDS011;67715;46.170;6.140;2023-05-16T10:49:43;4.50;;;3.10;;
78416;SDS011;67715;46.170;6.140;2023-05-16T10:52:09;6.68;;;3.60;;
78416;SDS011;67715;46.170;6.140;2023-05-16T10:54:36;4.72;;;2.95;;
78416;SDS011;67715;46.170;6.140;2023-05-16T10:57:10;5.05;;;3.53;;
78416;SDS011;67715;46.170;6.140;2023-05-16T10:59:49;3.70;;;3.00;;
78416;SDS011;67715;46.170;6.140;2023-05-16T11:04:48;4.38;;;3.03;;
78416;SDS011;67715;46.170;6.140;2023-05-16T11:07:16;3.90;;;2.53;;
78416;SDS011;67715;46.170;6.140;2023-05-16T11:09:42;2.90;;;2.25;;
78416;SDS011;67715;46.170;6.140;2023-05-16T11:12:08;3.03;;;1.50;;
78416;SDS011;67715;46.170;6.140;2023-05-16T11:14:35;2.00;;;1.23;;
78416;SDS011;67715;46.170;6.140;2023-05-16T11:17:07;2.88;;;1.35;;
78416;SDS011;67715;46.170;6.140;2023-05-16T11:19:46;1.58;;;1.20;;
78416;SDS011;67715;46.170;6.140;2023-05-16T11:24:49;1.60;;;1.00;;
78416;SDS011;67715;46.170;6.140;2023-05-16T11:27:19;2.25;;;1.20;;
78416;SDS011;67715;46.170;6.140;2023-05-16T11:29:52;4.35;;;1.30;;
78416;SDS011;67715;46.170;6.140;2023-05-16T11:32:19;1.85;;;1.13;;
78416;SDS011;67715;46.170;6.140;2023-05-16T11:34:48;2.35;;;1.77;;
78416;SDS011;67715;46.170;6.140;2023-05-16T11:37:16;3.78;;;3.28;;
78416;SDS011;67715;46.170;6.140;2023-05-16T11:39:41;3.40;;;2.72;;
78416;SDS011;67715;46.170;6.140;2023-05-16T11:42:07;5.05;;;3.58;;
78416;SDS011;67715;46.170;6.140;2023-05-16T11:44:33;4.43;;;3.47;;
78416;SDS011;67715;46.170;6.140;2023-05-16T11:46:59;4.88;;;3.72;;
78416;SDS011;67715;46.170;6.140;2023-05-16T11:49:26;6.50;;;3.60;;
78416;SDS011;67715;46.170;6.140;2023-05-16T11:51:52;5.57;;;3.83;;
78416;SDS011;67715;46.170;6.140;2023-05-16T11:54:18;6.78;;;4.13;;
78416;SDS011;67715;46.170;6.140;2023-05-16T11:56:43;6.13;;;4.10;;
78416;SDS011;67715;46.170;6.140;2023-05-16T11:59:09;6.63;;;4.35;;
78416;SDS011;67715;46.170;6.140;2023-05-16T12:01:35;7.70;;;4.70;;
78416;SDS011;67715;46.170;6.140;2023-05-16T12:04:06;7.25;;;4.43;;
78416;SDS011;67715;46.170;6.140;2023-05-16T12:06:36;6.88;;;4.10;;
78416;SDS011;67715;46.170;6.140;2023-05-16T12:09:02;5.60;;;4.30;;
78416;SDS011;67715;46.170;6.140;2023-05-16T12:11:36;5.63;;;4.25;;
78416;SDS011;67715;46.170;6.140;2023-05-16T12:14:03;6.18;;;3.67;;
78416;SDS011;67715;46.170;6.140;2023-05-16T12:16:29;2.88;;;2.08;;
78416;SDS011;67715;46.170;6.140;2023-05-16T12:18:55;2.55;;;1.77;;
78416;SDS011;67715;46.170;6.140;2023-05-16T12:21:21;3.47;;;1.58;;
78416;SDS011;67715;46.170;6.140;2023-05-16T12:23:46;2.00;;;1.20;;
78416;SDS011;67715;46.170;6.140;2023-05-16T12:26:11;1.63;;;1.10;;
78416;SDS011;67715;46.170;6.140;2023-05-16T12:28:37;1.93;;;0.90;;
78416;SDS011;67715;46.170;6.140;2023-05-16T12:31:03;1.40;;;1.00;;
78416;SDS011;67715;46.170;6.140;2023-05-16T12:33:36;1.90;;;1.33;;
78416;SDS011;67715;46.170;6.140;2023-05-16T12:36:01;3.33;;;2.10;;
78416;SDS011;67715;46.170;6.140;2023-05-16T12:38:28;3.00;;;2.35;;
78416;SDS011;67715;46.170;6.140;2023-05-16T12:40:56;3.72;;;2.65;;
78416;SDS011;67715;46.170;6.140;2023-05-16T12:43:22;3.90;;;2.90;;
78416;SDS011;67715;46.170;6.140;2023-05-16T12:45:51;5.13;;;3.35;;
78416;SDS011;67715;46.170;6.140;2023-05-16T12:48:21;4.68;;;2.70;;
78416;SDS011;67715;46.170;6.140;2023-05-16T12:50:47;3.28;;;2.60;;
78416;SDS011;67715;46.170;6.140;2023-05-16T12:53:14;3.55;;;2.72;;
78416;SDS011;67715;46.170;6.140;2023-05-16T12:55:41;3.63;;;2.60;;
78416;SDS011;67715;46.170;6.140;2023-05-16T12:58:07;3.72;;;2.53;;
78416;SDS011;67715;46.170;6.140;2023-05-16T13:00:33;3.80;;;2.85;;
78416;SDS011;67715;46.170;6.140;2023-05-16T13:02:58;4.03;;;2.80;;
78416;SDS011;67715;46.170;6.140;2023-05-16T13:05:23;4.67;;;2.37;;
78416;SDS011;67715;46.170;6.140;2023-05-16T13:07:49;4.23;;;2.10;;
78416;SDS011;67715;46.170;6.140;2023-05-16T13:10:18;3.67;;;1.95;;
78416;SDS011;67715;46.170;6.140;2023-05-16T13:12:44;4.40;;;2.30;;
78416;SDS011;67715;46.170;6.140;2023-05-16T13:15:10;3.38;;;2.20;;
78416;SDS011;67715;46.170;6.140;2023-05-16T13:17:39;2.70;;;2.17;;
78416;SDS011;67715;46.170;6.140;2023-05-16T13:20:05;3.15;;;2.40;;
78416;SDS011;67715;46.170;6.140;2023-05-16T13:22:37;3.60;;;2.40;;
78416;SDS011;67715;46.170;6.140;2023-05-16T13:25:03;6.28;;;2.70;;
78416;SDS011;67715;46.170;6.140;2023-05-16T13:27:30;4.15;;;2.85;;
78416;SDS011;67715;46.170;6.140;2023-05-16T13:29:56;2.90;;;2.60;;
78416;SDS011;67715;46.170;6.140;2023-05-16T13:32:22;4.50;;;2.70;;
78416;SDS011;67715;46.170;6.140;2023-05-16T13:34:48;5.97;;;2.85;;
78416;SDS011;67715;46.170;6.140;2023-05-16T13:37:13;3.55;;;2.47;;
78416;SDS011;67715;46.170;6.140;2023-05-16T13:39:38;3.57;;;2.67;;
78416;SDS011;67715;46.170;6.140;2023-05-16T13:42:05;5.05;;;2.20;;
78416;SDS011;67715;46.170;6.140;2023-05-16T13:44:30;3.63;;;2.70;;
78416;SDS011;67715;46.170;6.140;2023-05-16T13:46:56;3.27;;;2.57;;
78416;SDS011;67715;46.170;6.140;2023-05-16T13:49:22;6.45;;;2.45;;
78416;SDS011;67715;46.170;6.140;2023-05-16T13:51:47;3.47;;;1.50;;
78416;SDS011;67715;46.170;6.140;2023-05-16T13:54:12;2.00;;;1.40;;
78416;SDS011;67715;46.170;6.140;2023-05-16T13:56:38;3.40;;;1.83;;
78416;SDS011;67715;46.170;6.140;2023-05-16T13:59:03;1.70;;;1.00;;
78416;SDS011;67715;46.170;6.140;2023-05-16T14:01:28;1.40;;;0.80;;
78416;SDS011;67715;46.170;6.140;2023-05-16T14:03:54;1.95;;;1.00;;
78416;SDS011;67715;46.170;6.140;2023-05-16T14:06:20;1.52;;;0.98;;
78416;SDS011;67715;46.170;6.140;2023-05-16T14:08:45;1.23;;;1.00;;
78416;SDS011;67715;46.170;6.140;2023-05-16T14:11:11;1.80;;;1.00;;
78416;SDS011;67715;46.170;6.140;2023-05-16T14:13:36;1.93;;;1.53;;
78416;SDS011;67715;46.170;6.140;2023-05-16T14:16:04;3.10;;;1.90;;
78416;SDS011;67715;46.170;6.140;2023-05-16T14:18:30;3.65;;;2.30;;
78416;SDS011;67715;46.170;6.140;2023-05-16T14:20:55;5.13;;;2.53;;
78416;SDS011;67715;46.170;6.140;2023-05-16T14:23:21;3.97;;;2.70;;
78416;SDS011;67715;46.170;6.140;2023-05-16T14:25:46;3.78;;;2.53;;
78416;SDS011;67715;46.170;6.140;2023-05-16T14:28:12;6.10;;;2.70;;
78416;SDS011;67715;46.170;6.140;2023-05-16T14:30:37;4.40;;;2.77;;
78416;SDS011;67715;46.170;6.140;2023-05-16T14:33:03;5.60;;;2.97;;
78416;SDS011;67715;46.170;6.140;2023-05-16T14:35:29;4.13;;;2.80;;
78416;SDS011;67715;46.170;6.140;2023-05-16T14:37:55;2.80;;;2.23;;
78416;SDS011;67715;46.170;6.140;2023-05-16T14:40:20;5.50;;;2.77;;
78416;SDS011;67715;46.170;6.140;2023-05-16T14:42:45;3.95;;;2.60;;
78416;SDS011;67715;46.170;6.140;2023-05-16T14:45:11;4.80;;;3.17;;
78416;SDS011;67715;46.170;6.140;2023-05-16T14:47:36;3.73;;;2.50;;
78416;SDS011;67715;46.170;6.140;2023-05-16T14:50:02;5.40;;;2.90;;
78416;SDS011;67715;46.170;6.140;2023-05-16T14:52:27;5.97;;;3.08;;
78416;SDS011;67715;46.170;6.140;2023-05-16T14:54:52;4.00;;;2.87;;
78416;SDS011;67715;46.170;6.140;2023-05-16T14:57:18;8.13;;;3.70;;
78416;SDS011;67715;46.170;6.140;2023-05-16T14:59:43;2.60;;;1.43;;
78416;SDS011;67715;46.170;6.140;2023-05-16T15:02:08;5.17;;;1.70;;